Time;durP1;ratioP1;P1;durP2;ratioP2;P2;SDS_P1;SDS_P2;PMS_P1;PMS_P2;Temp;Humidity;BMP_temperature;BMP_pressure;BME280_temperature;BME280_humidity;BME280_pressure;Samples;Min_cycle;Max_cycle;Signal;HPM_P1;HPM_P2
2023/05/11 00:01:20;;;;;;;;;;;;;;;;;;4932672;29;1969;-50
2023/05/11 00:03:47;;;;;;;;;;;;;;;;;;4932991;29;2103;-45
2023/05/11 00:06:14;;;;;;;;;;;;;;;;;;4933009;29;1997;-52
2023/05/11 00:08:42;;;;;;;;;;;;;;;;;;4933228;29;2051;-48
2023/05/11 00:11:09;;;;;;;;;;;;;;;;;;4933051;29;2023;-48
2023/05/11 00:13:38;;;;;;;;;;;;;;;;;;4932861;29;2189;-48
2023/05/11 00:16:05;;;;;;;;;;;;;;;;;;4933075;29;1847;-48
2023/05/11 00:18:33;;;;;;;;;;;;;;;;;;4932784;29;1920;-53
2023/05/11 00:21:01;;;;;;;;;;;;;;;;;;4931528;29;2122;-55
2023/05/11 00:23:28;;;;;;;;;;;;;;;;;;4932779;29;2219;-48
2023/05/11 00:25:55;;;;;;;;;;;;;;;;;;4933200;29;1999;-50
2023/05/11 00:28:22;;;;;;;;;;;;;;;;;;4932525;29;1938;-54
2023/05/11 00:30:54;;;;;;;;;;;;;;;;;;4932771;29;1966;-45
2023/05/11 00:33:21;;;;;;;;;;;;;;;;;;4932630;29;1935;-48
2023/05/11 00:35:50;;;;;;;;;;;;;;;;;;4932929;29;1814;-50
2023/05/11 00:38:17;;;;;;;;;;;;;;;;;;4932615;29;2026;-46
2023/05/11 00:40:44;;;;;;;;;;;;;;;;;;4932785;29;2111;-43
2023/05/11 00:43:12;;;;;;;;;;;;;;;;;;4932528;29;2061;-51
2023/05/11 00:45:39;;;;;;;;;;;;;;;;;;4932329;29;1706;-42
2023/05/11 00:48:07;;;;;;;;;;;;;;;;;;4936462;29;1989;-51
2023/05/11 00:50:35;;;;;;;;;;;;;;;;;;4936337;29;1886;-46
2023/05/11 00:53:03;;;;;;;;;;;;;;;;;;4936255;29;1989;-47
2023/05/11 00:55:30;;;;;;;;;;;;;;;;;;4936014;29;2225;-44
2023/05/11 00:57:58;;;;;;;;;;;;;;;;;;4936336;29;1828;-51
2023/05/11 01:00:28;;;;;;;;;;;;;;;;;;4935940;29;1941;-48
2023/05/11 01:02:56;;;;;;;;;;;;;;;;;;4935980;29;1833;-48
2023/05/11 01:05:31;;;;;;;;;;;;;;;;;;4936026;29;1786;-48
2023/05/11 01:07:58;;;;;;;;;;;;;;;;;;4936018;29;1984;-56
2023/05/11 01:10:28;;;;;;;;;;;;;;;;;;4935813;29;1997;-50
2023/05/11 01:13:12;;;;;;;;;;;;;;;;;;4935460;29;2205;-48
2023/05/11 01:15:46;;;;;;;;;;;;;;;;;;4934506;29;1717;-45
2023/05/11 01:18:26;;;;;;;;;;;;;;;;;;4934424;29;1911;-49
2023/05/11 01:21:01;;;;;;;;;;;;;;;;;;4935369;29;2100;-48
2023/05/11 01:23:48;;;;;;;;;;;;;;;;;;4934355;29;2025;-51
2023/05/11 01:26:26;;;;;;;;;;;;;;;;;;4934481;29;2022;-49
2023/05/11 01:29:05;;;;;;;;;;;;;;;;;;4935563;29;1936;-44
2023/05/11 01:31:33;;;;;;;;;;;;;;;;;;4935070;29;2026;-50
2023/05/11 01:34:02;;;;;;;;;;;;;;;;;;4933492;29;1927;-50
2023/05/11 01:36:32;;;;;;;;;;;;;;;;;;4933755;29;2172;-48
2023/05/11 01:39:02;;;;;;;;;;;;;;;;;;4935327;29;2044;-43
2023/05/11 01:41:31;;;;;;;;;;;;;;;;;;4933623;29;1916;-51
2023/05/11 01:44:02;;;;;;;;;;;;;;;;;;4933591;29;2055;-52
2023/05/11 01:46:30;;;;;;;;;;;;;;;;;;4935139;29;2162;-46
2023/05/11 01:48:59;;;;;;;;;;;;;;;;;;4934973;29;1847;-45
2023/05/11 01:51:27;;;;;;;;;;;;;;;;;;4934926;29;2181;-49
2023/05/11 01:53:55;;;;;;;;;;;;;;;;;;4935267;29;1798;-51
2023/05/11 01:56:24;;;;;;;;;;;;;;;;;;4933386;29;2195;-47
2023/05/11 01:58:53;;;;;;;;;;;;;;;;;;4933930;29;2098;-46
2023/05/11 02:01:20;;;;;;;;;;;;;;;;;;4933350;29;2079;-44
2023/05/11 02:03:48;;;;;;;;;;;;;;;;;;4934610;29;2055;-50
2023/05/11 02:06:18;;;;;;;;;;;;;;;;;;4934048;29;1958;-49
2023/05/11 02:08:46;;;;;;;;;;;;;;;;;;4934802;29;1931;-45
2023/05/11 02:11:14;;;;;;;;;;;;;;;;;;4933379;29;1987;-47
2023/05/11 02:13:43;;;;;;;;;;;;;;;;;;4933696;29;2027;-57
2023/05/11 02:16:11;;;;;;;;;;;;;;;;;;4933438;29;2329;-47
2023/05/11 02:18:39;;;;;;;;;;;;;;;;;;4933237;29;1742;-51
2023/05/11 02:21:08;;;;;;;;;;;;;;;;;;4932971;29;1981;-49
2023/05/11 02:23:36;;;;;;;;;;;;;;;;;;4932945;29;2021;-45
2023/05/11 02:26:04;;;;;;;;;;;;;;;;;;4934488;29;1998;-51
2023/05/11 02:28:32;;;;;;;;;;;;;;;;;;4934220;29;2100;-48
2023/05/11 02:31:04;;;;;;;;;;;;;;;;;;4933125;29;2053;-43
2023/05/11 02:33:38;;;;;;;;;;;;;;;;;;4934048;29;2108;-52
2023/05/11 02:36:07;;;;;;;;;;;;;;;;;;4933013;29;2529;-50
2023/05/11 02:38:36;;;;;;;;;;;;;;;;;;4932638;29;1879;-52
2023/05/11 02:41:09;;;;;;;;;;;;;;;;;;4932751;29;2138;-47
2023/05/11 02:43:40;;;;;;;;;;;;;;;;;;4932549;29;2148;-43
2023/05/11 02:46:10;;;;;;;;;;;;;;;;;;4933083;29;2062;-51
2023/05/11 02:48:40;;;;;;;;;;;;;;;;;;4933948;29;1741;-55
2023/05/11 02:51:10;;;;;;;;;;;;;;;;;;4932880;29;1936;-51
2023/05/11 02:53:44;;;;;;;;;;;;;;;;;;4934223;29;1875;-45
2023/05/11 02:56:12;;;;;;;;;;;;;;;;;;4934047;29;1984;-57
2023/05/11 02:58:39;;;;;;;;;;;;;;;;;;4932625;29;1966;-57
2023/05/11 03:01:20;;;;;;;;;;;;;;;;;;4932599;29;2179;-56
2023/05/11 03:03:48;;;;;;;;;;;;;;;;;;4933980;29;1945;-59
2023/05/11 03:06:16;;;;;;;;;;;;;;;;;;4932834;29;2145;-59
2023/05/11 03:08:44;;;;;;;;;;;;;;;;;;4932423;29;1953;-50
2023/05/11 03:11:13;;;;;;;;;;;;;;;;;;4932240;29;2015;-49
2023/05/11 03:13:41;;;;;;;;;;;;;;;;;;4933347;29;2123;-49
2023/05/11 03:16:11;;;;;;;;;;;;;;;;;;4932530;29;1980;-51
2023/05/11 03:18:39;;;;;;;;;;;;;;;;;;4931951;29;2026;-49
2023/05/11 03:21:07;;;;;;;;;;;;;;;;;;4933441;29;2120;-49
2023/05/11 03:23:35;;;;;;;;;;;;;;;;;;4932407;29;1712;-51
2023/05/11 03:26:03;;;;;;;;;;;;;;;;;;4925360;29;2157;-45
2023/05/11 03:28:30;;;;;;;;;;;;;;;;;;4913008;29;2137;-46
2023/05/11 03:31:02;;;;;;;;;;;;;;;;;;4913310;29;2151;-47
2023/05/11 03:33:31;;;;;;;;;;;;;;;;;;4913016;29;2218;-53
2023/05/11 03:35:59;;;;;;;;;;;;;;;;;;4913115;29;2032;-47
2023/05/11 03:38:29;;;;;;;;;;;;;;;;;;4913003;29;2132;-55
2023/05/11 03:40:57;;;;;;;;;;;;;;;;;;4913195;29;1903;-53
2023/05/11 03:43:26;;;;;;;;;;;;;;;;;;4913259;29;1987;-57
2023/05/11 03:45:55;;;;;;;;;;;;;;;;;;4913401;29;2019;-52
2023/05/11 03:48:24;;;;;;;;;;;;;;;;;;4912943;29;1927;-59
2023/05/11 03:50:51;;;;;;;;;;;;;;;;;;4914129;29;2186;-55
2023/05/11 03:53:18;;;;;;;;;;;;;;;;;;4924349;29;1883;-44
2023/05/11 03:55:46;;;;;;;;;;;;;;;;;;4933442;29;2040;-55
2023/05/11 03:58:13;;;;;;;;;;;;;;;;;;4933431;29;1862;-57
2023/05/11 04:00:41;;;;;;;;;;;;;;;;;;4931699;29;1798;-51
2023/05/11 04:03:08;;;;;;;;;;;;;;;;;;4933141;29;2085;-55
2023/05/11 04:05:37;;;;;;;;;;;;;;;;;;4931570;29;2091;-46
2023/05/11 04:08:08;;;;;;;;;;;;;;;;;;4931735;29;2022;-51
2023/05/11 04:10:37;;;;;;;;;;;;;;;;;;4933011;29;2098;-49
2023/05/11 04:13:05;;;;;;;;;;;;;;;;;;4931996;29;1971;-48
2023/05/11 04:15:34;;;;;;;;;;;;;;;;;;4933214;29;2054;-52
2023/05/11 04:18:02;;;;;;;;;;;;;;;;;;4932761;29;1978;-43
2023/05/11 04:20:31;;;;;;;;;;;;;;;;;;4931334;29;2097;-58
2023/05/11 04:22:58;;;;;;;;;;;;;;;;;;4935499;29;1914;-55
2023/05/11 04:25:26;;;;;;;;;;;;;;;;;;4936538;29;2001;-52
2023/05/11 04:27:53;;;;;;;;;;;;;;;;;;4936964;29;1983;-54
2023/05/11 04:30:20;;;;;;;;;;;;;;;;;;4935395;29;2159;-58
2023/05/11 04:32:48;;;;;;;;;;;;;;;;;;4936516;29;2200;-55
2023/05/11 04:35:15;;;;;;;;;;;;;;;;;;4936947;29;1990;-59
2023/05/11 04:37:42;;;;;;;;;;;;;;;;;;4936631;29;2073;-53
2023/05/11 04:40:11;;;;;;;;;;;;;;;;;;4935452;29;1981;-42
2023/05/11 04:42:39;;;;;;;;;;;;;;;;;;4935016;29;2047;-59
2023/05/11 04:45:15;;;;;;;;;;;;;;;;;;4934943;29;2254;-59
2023/05/11 04:47:43;;;;;;;;;;;;;;;;;;4935006;29;1940;-49
2023/05/11 04:50:11;;;;;;;;;;;;;;;;;;4934662;29;2223;-50
2023/05/11 04:52:38;;;;;;;;;;;;;;;;;;4934602;29;2073;-49
2023/05/11 04:55:05;;;;;;;;;;;;;;;;;;4935023;29;2153;-48
2023/05/11 04:57:33;;;;;;;;;;;;;;;;;;4936110;29;1780;-52
2023/05/11 05:00:02;;;;;;;;;;;;;;;;;;4934769;29;2009;-51
2023/05/11 05:02:31;;;;;;;;;;;;;;;;;;4934787;29;2002;-54
2023/05/11 05:04:59;;;;;;;;;;;;;;;;;;4935065;29;1937;-52
2023/05/11 05:07:26;;;;;;;;;;;;;;;;;;4936030;29;2145;-57
2023/05/11 05:09:54;;;;;;;;;;;;;;;;;;4934686;29;2028;-53
2023/05/11 05:12:22;;;;;;;;;;;;;;;;;;4935603;29;1402;-53
2023/05/11 05:14:49;;;;;;;;;;;;;;;;;;4936130;29;2001;-50
2023/05/11 05:17:16;;;;;;;;;;;;;;;;;;4934680;29;1943;-56
2023/05/11 05:19:44;;;;;;;;;;;;;;;;;;4934605;29;1815;-53
2023/05/11 05:22:11;;;;;;;;;;;;;;;;;;4935749;29;2024;-53
2023/05/11 05:24:38;;;;;;;;;;;;;;;;;;4935698;29;1935;-45
2023/05/11 05:27:05;;;;;;;;;;;;;;;;;;4934310;29;1887;-54
2023/05/11 05:29:33;;;;;;;;;;;;;;;;;;4950053;29;2151;-49
2023/05/11 05:32:00;;;;;;;;;;;;;;;;;;4935570;29;1974;-56
2023/05/11 05:34:28;;;;;;;;;;;;;;;;;;4934098;29;2145;-50
2023/05/11 05:36:55;;;;;;;;;;;;;;;;;;4935428;29;1930;-57
2023/05/11 05:39:23;;;;;;;;;;;;;;;;;;4933975;29;1785;-45
2023/05/11 05:41:50;;;;;;;;;;;;;;;;;;4934152;29;1960;-52
2023/05/11 05:44:18;;;;;;;;;;;;;;;;;;4933969;29;2312;-48
2023/05/11 05:46:46;;;;;;;;;;;;;;;;;;4934057;29;2078;-59
2023/05/11 05:49:13;;;;;;;;;;;;;;;;;;4934360;29;1916;-48
2023/05/11 05:51:41;;;;;;;;;;;;;;;;;;4933761;29;2108;-56
2023/05/11 05:54:09;;;;;;;;;;;;;;;;;;4934933;29;2033;-52
2023/05/11 05:56:37;;;;;;;;;;;;;;;;;;4935048;29;1975;-53
2023/05/11 05:59:05;;;;;;;;;;;;;;;;;;4933789;29;2139;-58
2023/05/11 06:01:32;;;;;;;;;;;;;;;;;;4934776;29;2086;-57
2023/05/11 06:03:59;;;;;;;;;;;;;;;;;;4933907;29;2201;-53
2023/05/11 06:06:30;;;;;;;;;;;;;;;;;;4933425;29;1934;-49
2023/05/11 06:08:57;;;;;;;;;;;;;;;;;;4934900;29;2028;-51
2023/05/11 06:11:25;;;;;;;;;;;;;;;;;;4933176;29;2074;-44
2023/05/11 06:13:52;;;;;;;;;;;;;;;;;;4933867;29;1984;-46
2023/05/11 06:16:19;;;;;;;;;;;;;;;;;;4933466;29;2023;-44
2023/05/11 06:18:47;;;;;;;;;;;;;;;;;;4935044;29;1964;-43
2023/05/11 06:21:14;;;;;;;;;;;;;;;;;;4933324;29;1908;-42
2023/05/11 06:23:41;;;;;;;;;;;;;;;;;;4933298;29;2027;-42
2023/05/11 06:26:09;;;;;;;;;;;;;;;;;;4933409;29;1988;-55
2023/05/11 06:28:36;;;;;;;;;;;;;;;;;;4932920;29;2292;-60
2023/05/11 06:31:08;;;;;;;;;;;;;;;;;;4933032;29;2116;-58
2023/05/11 06:33:38;;;;;;;;;;;;;;;;;;4932864;29;2335;-41
2023/05/11 06:36:10;;;;;;;;;;;;;;;;;;4934337;29;2163;-50
2023/05/11 06:38:37;;;;;;;;;;;;;;;;;;4932963;29;1909;-43
2023/05/11 06:41:08;;;;;;;;;;;;;;;;;;4932989;29;1915;-44
2023/05/11 06:43:38;;;;;;;;;;;;;;;;;;4933533;29;1916;-42
2023/05/11 06:46:17;;;;;;;;;;;;;;;;;;4933096;29;2050;-54
2023/05/11 06:48:44;;;;;;;;;;;;;;;;;;4933184;29;1953;-53
2023/05/11 06:51:11;;;;;;;;;;;;;;;;;;4934490;29;1725;-63
2023/05/11 06:53:39;;;;;;;;;;;;;;;;;;4933885;29;2225;-53
2023/05/11 06:56:07;;;;;;;;;;;;;;;;;;4933937;29;1970;-50
2023/05/11 06:58:34;;;;;;;;;;;;;;;;;;4933815;29;2002;-41
2023/05/11 07:01:04;;;;;;;;;;;;;;;;;;4933862;29;1908;-61
2023/05/11 07:03:31;;;;;;;;;;;;;;;;;;4933690;29;2070;-61
2023/05/11 07:05:58;;;;;;;;;;;;;;;;;;4933817;29;1963;-48
2023/05/11 07:08:26;;;;;;;;;;;;;;;;;;4933773;29;1955;-42
2023/05/11 07:10:53;;;;;;;;;;;;;;;;;;4933774;29;1844;-44
2023/05/11 07:13:20;;;;;;;;;;;;;;;;;;4933318;29;2022;-58
2023/05/11 07:15:48;;;;;;;;;;;;;;;;;;4934169;29;2167;-47
2023/05/11 07:18:16;;;;;;;;;;;;;;;;;;4934197;29;2078;-41
2023/05/11 07:20:45;;;;;;;;;;;;;;;;;;4933456;29;2002;-51
2023/05/11 07:23:12;;;;;;;;;;;;;;;;;;4933654;29;1926;-60
2023/05/11 07:25:40;;;;;;;;;;;;;;;;;;4933163;29;2381;-49
2023/05/11 07:28:07;;;;;;;;;;;;;;;;;;4933375;29;1938;-43
2023/05/11 07:30:34;;;;;;;;;;;;;;;;;;4933190;29;2143;-41
2023/05/11 07:33:02;;;;;;;;;;;;;;;;;;4933631;29;1948;-41
2023/05/11 07:35:29;;;;;;;;;;;;;;;;;;4933483;29;2025;-42
2023/05/11 07:37:57;;;;;;;;;;;;;;;;;;4933638;29;2177;-42
2023/05/11 07:40:24;;;;;;;;;;;;;;;;;;4933068;29;1970;-39
2023/05/11 07:42:51;;;;;;;;;;;;;;;;;;4933491;29;1962;-53
2023/05/11 07:45:18;;;;;;;;;;;;;;;;;;4933472;29;1948;-46
2023/05/11 07:47:45;;;;;;;;;;;;;;;;;;4933433;29;1880;-59
2023/05/11 07:50:13;;;;;;;;;;;;;;;;;;4933646;29;2064;-41
2023/05/11 07:52:40;;;;;;;;;;;;;;;;;;4932884;29;2014;-52
2023/05/11 07:55:07;;;;;;;;;;;;;;;;;;4932621;29;2080;-46
2023/05/11 07:57:34;;;;;;;;;;;;;;;;;;4936041;29;2100;-51
2023/05/11 08:00:02;;;;;;;;;;;;;;;;;;4937581;29;2075;-58
2023/05/11 08:02:37;;;;;;;;;;;;;;;;;;4937114;29;2000;-60
2023/05/11 08:05:04;;;;;;;;;;;;;;;;;;4935832;29;2119;-53
2023/05/11 08:07:31;;;;;;;;;;;;;;;;;;4936745;29;1935;-59
2023/05/11 08:09:59;;;;;;;;;;;;;;;;;;4937117;29;1811;-58
2023/05/11 08:12:28;;;;;;;;;;;;;;;;;;4936732;29;1807;-59
2023/05/11 08:14:58;;;;;;;;;;;;;;;;;;4936948;29;2041;-59
2023/05/11 08:17:25;;;;;;;;;;;;;;;;;;4936803;29;1941;-58
2023/05/11 08:19:53;;;;;;;;;;;;;;;;;;4936410;29;2258;-56
2023/05/11 08:22:20;;;;;;;;;;;;;;;;;;4936446;29;1914;-58
2023/05/11 08:24:48;;;;;;;;;;;;;;;;;;4937024;29;2030;-59
2023/05/11 08:27:15;;;;;;;;;;;;;;;;;;4936745;29;2079;-55
2023/05/11 08:29:42;;;;;;;;;;;;;;;;;;4936748;29;1901;-50
2023/05/11 08:32:09;;;;;;;;;;;;;;;;;;4936631;29;1939;-48
2023/05/11 08:34:37;;;;;;;;;;;;;;;;;;4936296;29;2068;-46
2023/05/11 08:37:04;;;;;;;;;;;;;;;;;;4936673;29;1853;-45
2023/05/11 08:39:34;;;;;;;;;;;;;;;;;;4936407;29;2187;-56
2023/05/11 08:42:14;;;;;;;;;;;;;;;;;;4936441;29;1998;-61
2023/05/11 08:44:41;;;;;;;;;;;;;;;;;;4936209;29;1802;-61
2023/05/11 08:47:09;;;;;;;;;;;;;;;;;;4936490;29;2153;-60
2023/05/11 08:49:40;;;;;;;;;;;;;;;;;;4936149;29;1961;-59
2023/05/11 08:52:07;;;;;;;;;;;;;;;;;;4936438;29;1994;-60
2023/05/11 08:54:34;;;;;;;;;;;;;;;;;;4936197;29;1817;-51
2023/05/11 08:57:02;;;;;;;;;;;;;;;;;;4936205;29;2031;-60
2023/05/11 08:59:30;;;;;;;;;;;;;;;;;;4936152;29;1870;-59
2023/05/11 09:01:57;;;;;;;;;;;;;;;;;;4936247;29;2094;-60
2023/05/11 09:04:25;;;;;;;;;;;;;;;;;;4935931;29;2042;-58
2023/05/11 09:06:53;;;;;;;;;;;;;;;;;;4935472;29;1628;-58
2023/05/11 09:09:22;;;;;;;;;;;;;;;;;;4935695;29;1918;-60
2023/05/11 09:11:50;;;;;;;;;;;;;;;;;;4935759;29;2183;-60
2023/05/11 09:14:17;;;;;;;;;;;;;;;;;;4936030;29;2082;-59
2023/05/11 09:16:44;;;;;;;;;;;;;;;;;;4936288;29;2101;-51
2023/05/11 09:19:13;;;;;;;;;;;;;;;;;;4935727;29;1946;-50
2023/05/11 09:21:40;;;;;;;;;;;;;;;;;;4935571;29;1921;-47
2023/05/11 09:24:10;;;;;;;;;;;;;;;;;;4935685;29;2154;-47
2023/05/11 09:26:37;;;;;;;;;;;;;;;;;;4935520;29;2140;-50
2023/05/11 09:29:04;;;;;;;;;;;;;;;;;;4935977;29;2228;-49
2023/05/11 09:31:41;;;;;;;;;;;;;;;;;;4935437;29;1892;-45
2023/05/11 09:34:09;;;;;;;;;;;;;;;;;;4935815;29;1927;-47
2023/05/11 09:36:36;;;;;;;;;;;;;;;;;;4935544;29;2141;-58
2023/05/11 09:39:04;;;;;;;;;;;;;;;;;;4935542;29;1890;-54
2023/05/11 09:41:31;;;;;;;;;;;;;;;;;;4935233;29;1982;-53
2023/05/11 09:44:05;;;;;;;;;;;;;;;;;;4935601;29;1911;-47
2023/05/11 09:46:35;;;;;;;;;;;;;;;;;;4935511;29;2003;-48
2023/05/11 09:49:03;;;;;;;;;;;;;;;;;;4935554;29;2183;-60
2023/05/11 09:51:34;;;;;;;;;;;;;;;;;;4935141;29;2017;-60
2023/05/11 09:54:15;;;;;;;;;;;;;;;;;;4935275;29;2128;-45
2023/05/11 09:56:43;;;;;;;;;;;;;;;;;;4935093;29;2048;-45
2023/05/11 09:59:11;;;;;;;;;;;;;;;;;;4935391;29;2040;-49
2023/05/11 10:01:39;;;;;;;;;;;;;;;;;;4934995;29;2086;-45
2023/05/11 10:04:08;;;;;;;;;;;;;;;;;;4934811;29;2080;-46
2023/05/11 10:06:51;;;;;;;;;;;;;;;;;;4934938;29;1963;-49
2023/05/11 10:09:23;;;;;;;;;;;;;;;;;;4935034;29;1913;-49
2023/05/11 10:11:52;;;;;;;;;;;;;;;;;;4934759;29;2049;-49
2023/05/11 10:14:20;;;;;;;;;;;;;;;;;;4934681;29;1945;-44
2023/05/11 10:16:48;;;;;;;;;;;;;;;;;;4935004;29;1723;-44
2023/05/11 10:19:15;;;;;;;;;;;;;;;;;;4933700;29;1974;-48
2023/05/11 10:21:43;;;;;;;;;;;;;;;;;;4934853;29;2000;-52
2023/05/11 10:24:10;;;;;;;;;;;;;;;;;;4933353;29;2039;-52
2023/05/11 10:26:38;;;;;;;;;;;;;;;;;;4934402;29;1969;-48
2023/05/11 10:29:05;;;;;;;;;;;;;;;;;;4934489;29;2243;-50
2023/05/11 10:31:32;;;;;;;;;;;;;;;;;;4934149;29;2025;-57
2023/05/11 10:34:00;;;;;;;;;;;;;;;;;;4934728;29;2175;-46
2023/05/11 10:36:28;;;;;;;;;;;;;;;;;;4934623;29;1838;-60
2023/05/11 10:38:55;;;;;;;;;;;;;;;;;;4934606;29;1980;-53
2023/05/11 10:41:22;;;;;;;;;;;;;;;;;;4934027;29;1958;-45
2023/05/11 10:43:58;;;;;;;;;;;;;;;;;;4934242;29;2086;-46
2023/05/11 10:46:36;;;;;;;;;;;;;;;;;;4934100;29;2047;-43
2023/05/11 10:49:10;;;;;;;;;;;;;;;;;;4934345;29;2202;-45
2023/05/11 10:51:46;;;;;;;;;;;;;;;;;;4934004;29;1866;-52
2023/05/11 10:54:43;;;;;;;;;;;;;;;;;;4934186;29;2124;-57
2023/05/11 10:57:13;;;;;;;;;;;;;;;;;;4937250;29;1808;-59
2023/05/11 10:59:48;;;;;;;;;;;;;;;;;;4932745;29;2114;-48
2023/05/11 11:02:17;;;;;;;;;;;;;;;;;;4932362;29;1971;-47
2023/05/11 11:04:45;;;;;;;;;;;;;;;;;;4932419;29;2017;-45
2023/05/11 11:07:17;;;;;;;;;;;;;;;;;;4932278;29;2072;-46
2023/05/11 11:10:05;;;;;;;;;;;;;;;;;;4932175;29;1975;-47
2023/05/11 11:12:35;;;;;;;;;;;;;;;;;;4931630;29;2224;-47
2023/05/11 11:15:06;;;;;;;;;;;;;;;;;;4932117;29;1901;-45
2023/05/11 11:17:33;;;;;;;;;;;;;;;;;;4933297;29;1861;-45
2023/05/11 11:20:03;;;;;;;;;;;;;;;;;;4933634;29;2118;-47
2023/05/11 11:22:33;;;;;;;;;;;;;;;;;;4933597;29;1944;-48
2023/05/11 11:25:08;;;;;;;;;;;;;;;;;;4932403;29;2070;-46
2023/05/11 11:27:44;;;;;;;;;;;;;;;;;;4933050;29;1824;-47
2023/05/11 11:30:17;;;;;;;;;;;;;;;;;;4933422;29;2107;-46
2023/05/11 11:32:45;;;;;;;;;;;;;;;;;;4934015;29;1966;-46
2023/05/11 11:35:31;;;;;;;;;;;;;;;;;;4933234;29;2122;-49
2023/05/11 11:38:00;;;;;;;;;;;;;;;;;;4933548;29;1770;-45
2023/05/11 11:40:35;;;;;;;;;;;;;;;;;;4933143;29;1916;-47
2023/05/11 11:43:14;;;;;;;;;;;;;;;;;;4933608;29;1953;-58
2023/05/11 11:45:50;;;;;;;;;;;;;;;;;;4933282;29;1980;-45
2023/05/11 11:48:36;;;;;;;;;;;;;;;;;;4933628;29;2047;-62
2023/05/11 11:51:07;;;;;;;;;;;;;;;;;;4933202;29;1938;-61
2023/05/11 11:53:35;;;;;;;;;;;;;;;;;;4920610;29;1923;-59
2023/05/11 11:56:25;;;;;;;;;;;;;;;;;;4914525;29;2051;-61
2023/05/11 11:59:02;;;;;;;;;;;;;;;;;;4915739;29;1980;-56
2023/05/11 12:01:34;;;;;;;;;;;;;;;;;;4914146;29;2099;-55
2023/05/11 12:04:04;;;;;;;;;;;;;;;;;;4913969;29;1990;-45
2023/05/11 12:06:35;;;;;;;;;;;;;;;;;;4914366;29;1994;-48
2023/05/11 12:09:04;;;;;;;;;;;;;;;;;;4920817;29;2006;-47
2023/05/11 12:11:31;;;;;;;;;;;;;;;;;;4932870;29;2135;-50
2023/05/11 12:13:59;;;;;;;;;;;;;;;;;;4933132;29;1769;-55
2023/05/11 12:16:26;;;;;;;;;;;;;;;;;;4932949;29;1736;-57
2023/05/11 12:18:56;;;;;;;;;;;;;;;;;;4932970;29;2052;-59
2023/05/11 12:21:28;;;;;;;;;;;;;;;;;;4932731;29;2004;-59
2023/05/11 12:23:55;;;;;;;;;;;;;;;;;;4933022;29;2158;-50
2023/05/11 12:26:23;;;;;;;;;;;;;;;;;;4933101;29;1905;-49
2023/05/11 12:28:51;;;;;;;;;;;;;;;;;;4933235;29;1836;-56
2023/05/11 12:31:19;;;;;;;;;;;;;;;;;;4933270;29;2149;-45
2023/05/11 12:33:50;;;;;;;;;;;;;;;;;;4933342;29;1915;-45
2023/05/11 12:36:17;;;;;;;;;;;;;;;;;;4932950;29;1964;-47
2023/05/11 12:38:44;;;;;;;;;;;;;;;;;;4933437;29;1932;-45
2023/05/11 12:41:22;;;;;;;;;;;;;;;;;;4931509;29;1913;-48
2023/05/11 12:43:49;;;;;;;;;;;;;;;;;;4935928;29;2022;-44
2023/05/11 12:46:17;;;;;;;;;;;;;;;;;;4936746;29;1866;-46
2023/05/11 12:48:45;;;;;;;;;;;;;;;;;;4936529;29;1974;-45
2023/05/11 12:51:13;;;;;;;;;;;;;;;;;;4935285;29;2116;-45
2023/05/11 12:53:40;;;;;;;;;;;;;;;;;;4936216;29;1441;-45
2023/05/11 12:56:07;;;;;;;;;;;;;;;;;;4936736;29;2191;-47
2023/05/11 12:58:38;;;;;;;;;;;;;;;;;;4935063;29;2081;-45
2023/05/11 13:01:08;;;;;;;;;;;;;;;;;;4936022;29;1989;-45
2023/05/11 13:03:35;;;;;;;;;;;;;;;;;;4935861;29;2081;-61
2023/05/11 13:06:06;;;;;;;;;;;;;;;;;;4936439;29;1902;-54
2023/05/11 13:08:35;;;;;;;;;;;;;;;;;;4935929;29;1932;-44
2023/05/11 13:11:34;;;;;;;;;;;;;;;;;;4936173;29;1976;-48
2023/05/11 13:14:14;;;;;;;;;;;;;;;;;;4945181;29;1923;-44
2023/05/11 13:16:51;;;;;;;;;;;;;;;;;;4935725;29;1987;-48
2023/05/11 13:19:27;;;;;;;;;;;;;;;;;;4935912;29;1583;-47
2023/05/11 13:21:55;;;;;;;;;;;;;;;;;;4935894;29;2026;-45
2023/05/11 13:24:22;;;;;;;;;;;;;;;;;;4935712;29;1987;-44
2023/05/11 13:26:50;;;;;;;;;;;;;;;;;;4935817;29;2016;-47
2023/05/11 13:29:17;;;;;;;;;;;;;;;;;;4935874;29;1979;-46
2023/05/11 13:31:46;;;;;;;;;;;;;;;;;;4936140;29;1848;-45
2023/05/11 13:34:14;;;;;;;;;;;;;;;;;;4934438;29;1960;-45
2023/05/11 13:36:41;;;;;;;;;;;;;;;;;;4935466;29;2151;-47
2023/05/11 13:39:11;;;;;;;;;;;;;;;;;;4935490;29;2192;-57
2023/05/11 13:41:39;;;;;;;;;;;;;;;;;;4935373;29;1829;-48
2023/05/11 13:44:06;;;;;;;;;;;;;;;;;;4935626;29;1969;-58
2023/05/11 13:46:34;;;;;;;;;;;;;;;;;;4935398;29;2035;-45
2023/05/11 13:49:02;;;;;;;;;;;;;;;;;;4935304;29;1436;-45
2023/05/11 13:51:30;;;;;;;;;;;;;;;;;;4927260;29;2098;-47
2023/05/11 13:53:58;;;;;;;;;;;;;;;;;;4931874;29;2099;-47
2023/05/11 13:56:25;;;;;;;;;;;;;;;;;;4935235;29;2133;-47
2023/05/11 13:58:52;;;;;;;;;;;;;;;;;;4935396;29;1946;-61
2023/05/11 14:01:19;;;;;;;;;;;;;;;;;;4935069;29;2224;-45
2023/05/11 14:03:50;;;;;;;;;;;;;;;;;;4935117;29;1924;-45
2023/05/11 14:06:19;;;;;;;;;;;;;;;;;;4934523;29;1847;-49
2023/05/11 14:08:46;;;;;;;;;;;;;;;;;;4934551;29;1918;-46
2023/05/11 14:11:14;;;;;;;;;;;;;;;;;;4934980;29;2121;-57
2023/05/11 14:13:41;;;;;;;;;;;;;;;;;;4934761;29;1928;-45
2023/05/11 14:16:08;;;;;;;;;;;;;;;;;;4934474;29;2106;-45
2023/05/11 14:18:36;;;;;;;;;;;;;;;;;;4934582;29;1982;-54
2023/05/11 14:21:03;;;;;;;;;;;;;;;;;;4934151;29;1925;-45
2023/05/11 14:23:30;;;;;;;;;;;;;;;;;;4934688;29;1320;-47
2023/05/11 14:25:58;;;;;;;;;;;;;;;;;;4933814;29;2063;-53
2023/05/11 14:28:26;;;;;;;;;;;;;;;;;;4934471;29;1976;-48
2023/05/11 14:30:54;;;;;;;;;;;;;;;;;;4934632;29;1969;-48
2023/05/11 14:33:21;;;;;;;;;;;;;;;;;;4934504;29;1866;-47
2023/05/11 14:35:49;;;;;;;;;;;;;;;;;;4935063;29;1955;-45
2023/05/11 14:38:16;;;;;;;;;;;;;;;;;;4934714;29;2151;-47
2023/05/11 14:40:44;;;;;;;;;;;;;;;;;;4934369;29;1982;-45
2023/05/11 14:43:11;;;;;;;;;;;;;;;;;;4934178;29;2102;-53
2023/05/11 14:45:39;;;;;;;;;;;;;;;;;;4934087;29;2008;-45
2023/05/11 14:48:06;;;;;;;;;;;;;;;;;;4934540;29;2043;-49
2023/05/11 14:50:33;;;;;;;;;;;;;;;;;;4934060;29;2077;-45
2023/05/11 14:53:01;;;;;;;;;;;;;;;;;;4925909;29;1942;-46
2023/05/11 14:55:28;;;;;;;;;;;;;;;;;;4915136;29;1922;-45
2023/05/11 14:57:55;;;;;;;;;;;;;;;;;;4915389;29;1980;-46
2023/05/11 15:00:22;;;;;;;;;;;;;;;;;;4914919;29;2063;-45
2023/05/11 15:02:50;;;;;;;;;;;;;;;;;;4930322;29;2006;-46
2023/05/11 15:05:17;;;;;;;;;;;;;;;;;;4926171;29;2049;-47
2023/05/11 15:07:45;;;;;;;;;;;;;;;;;;4934155;29;2274;-52
2023/05/11 15:10:12;;;;;;;;;;;;;;;;;;4933773;29;1925;-46
2023/05/11 15:12:39;;;;;;;;;;;;;;;;;;4933457;29;1785;-52
2023/05/11 15:15:07;;;;;;;;;;;;;;;;;;4933820;29;2134;-47
2023/05/11 15:17:34;;;;;;;;;;;;;;;;;;4933713;29;1886;-46
2023/05/11 15:20:02;;;;;;;;;;;;;;;;;;4932596;29;2027;-45
2023/05/11 15:22:29;;;;;;;;;;;;;;;;;;4933830;29;2173;-48
2023/05/11 15:24:56;;;;;;;;;;;;;;;;;;4933822;29;2032;-50
2023/05/11 15:27:23;;;;;;;;;;;;;;;;;;4933616;29;1926;-48
2023/05/11 15:29:50;;;;;;;;;;;;;;;;;;4933546;29;2108;-47
2023/05/11 15:32:18;;;;;;;;;;;;;;;;;;4933852;29;1977;-49
2023/05/11 15:34:45;;;;;;;;;;;;;;;;;;4933972;29;1907;-48
2023/05/11 15:37:24;;;;;;;;;;;;;;;;;;4933251;29;2074;-45
2023/05/11 15:39:51;;;;;;;;;;;;;;;;;;4933831;29;1969;-45
2023/05/11 15:42:19;;;;;;;;;;;;;;;;;;4933814;29;1892;-46
2023/05/11 15:44:46;;;;;;;;;;;;;;;;;;4933837;29;2165;-44
2023/05/11 15:47:14;;;;;;;;;;;;;;;;;;4933683;29;1973;-49
2023/05/11 15:49:41;;;;;;;;;;;;;;;;;;4933105;29;1753;-56
2023/05/11 15:52:08;;;;;;;;;;;;;;;;;;4932168;29;2059;-50
2023/05/11 15:54:36;;;;;;;;;;;;;;;;;;4933164;29;2133;-46
2023/05/11 15:57:05;;;;;;;;;;;;;;;;;;4933197;29;2077;-59
2023/05/11 15:59:33;;;;;;;;;;;;;;;;;;4933186;29;2355;-49
2023/05/11 16:02:02;;;;;;;;;;;;;;;;;;4933357;29;1945;-46
2023/05/11 16:04:32;;;;;;;;;;;;;;;;;;4932799;29;2146;-46
2023/05/11 16:07:00;;;;;;;;;;;;;;;;;;4933217;29;1980;-48
2023/05/11 16:09:29;;;;;;;;;;;;;;;;;;4932992;29;2047;-48
2023/05/11 16:11:56;;;;;;;;;;;;;;;;;;4933272;29;1801;-46
2023/05/11 16:14:25;;;;;;;;;;;;;;;;;;4931920;29;2301;-47
2023/05/11 16:16:55;;;;;;;;;;;;;;;;;;4932955;29;2134;-45
2023/05/11 16:19:24;;;;;;;;;;;;;;;;;;4936890;29;1894;-59
2023/05/11 16:21:52;;;;;;;;;;;;;;;;;;4936927;29;2011;-48
2023/05/11 16:24:19;;;;;;;;;;;;;;;;;;4936835;29;2008;-50
2023/05/11 16:26:46;;;;;;;;;;;;;;;;;;4937173;29;2055;-45
2023/05/11 16:29:13;;;;;;;;;;;;;;;;;;4936881;29;2206;-49
2023/05/11 16:31:40;;;;;;;;;;;;;;;;;;4936488;29;2060;-50
2023/05/11 16:34:08;;;;;;;;;;;;;;;;;;4936818;29;2118;-50
2023/05/11 16:36:35;;;;;;;;;;;;;;;;;;4936489;29;1909;-52
2023/05/11 16:39:03;;;;;;;;;;;;;;;;;;4936659;29;1774;-46
2023/05/11 16:41:30;;;;;;;;;;;;;;;;;;4936276;29;2026;-53
2023/05/11 16:43:57;;;;;;;;;;;;;;;;;;4936629;29;1791;-58
2023/05/11 16:46:24;;;;;;;;;;;;;;;;;;4936299;29;2166;-59
2023/05/11 16:48:51;;;;;;;;;;;;;;;;;;4936506;29;1925;-48
2023/05/11 16:51:19;;;;;;;;;;;;;;;;;;4936554;29;2005;-62
2023/05/11 16:53:46;;;;;;;;;;;;;;;;;;4936625;29;1888;-50
2023/05/11 16:56:14;;;;;;;;;;;;;;;;;;4935023;29;2038;-58
2023/05/11 16:58:42;;;;;;;;;;;;;;;;;;4935832;29;1922;-53
2023/05/11 17:01:10;;;;;;;;;;;;;;;;;;4936554;29;2441;-50
2023/05/11 17:03:37;;;;;;;;;;;;;;;;;;4936182;29;1986;-57
2023/05/11 17:06:04;;;;;;;;;;;;;;;;;;4936221;29;2011;-55
2023/05/11 17:08:33;;;;;;;;;;;;;;;;;;4935840;29;2157;-48
2023/05/11 17:11:00;;;;;;;;;;;;;;;;;;4936019;29;1974;-53
2023/05/11 17:13:27;;;;;;;;;;;;;;;;;;4935947;29;2067;-56
2023/05/11 17:15:56;;;;;;;;;;;;;;;;;;4936017;29;1836;-51